Time;durP1;ratioP1;P1;durP2;ratioP2;P2;SDS_P1;SDS_P2;PMS_P1;PMS_P2;Temp;Humidity;BMP_temperature;BMP_pressure;BME280_temperature;BME280_humidity;BME280_pressure;Samples;Min_cycle;Max_cycle;Signal;HPM_P1;HPM_P2
2021/11/03 00:02:05;;;;;;;2.22;1.15;;;;;;;5.21;77.65;95101.75;5030902;28;20057;-71
2021/11/03 00:04:32;;;;;;;2.10;1.27;;;;;;;5.18;77.80;95097.78;5029900;28;20045;-71
2021/11/03 00:06:59;;;;;;;1.70;1.08;;;;;;;5.15;77.74;95097.59;5030262;28;20041;-71
2021/11/03 00:09:26;;;;;;;3.58;1.20;;;;;;;5.12;78.04;95103.66;5029864;28;20049;-71
2021/11/03 00:11:54;;;;;;;2.35;1.15;;;;;;;5.10;78.25;95100.44;5030880;28;20508;-71
2021/11/03 00:14:21;;;;;;;1.73;1.13;;;;;;;5.12;78.36;95090.16;5030106;28;20056;-71
2021/11/03 00:16:47;;;;;;;1.85;1.20;;;;;;;5.12;78.57;95095.56;5030407;28;20397;-71
2021/11/03 00:19:14;;;;;;;1.92;1.42;;;;;;;5.14;78.51;95083.31;5030314;28;20060;-71
2021/11/03 00:21:40;;;;;;;2.13;1.08;;;;;;;5.16;78.70;95083.00;5029665;28;20045;-71
2021/11/03 00:24:07;;;;;;;2.15;1.20;;;;;;;5.17;78.65;95087.31;5032174;28;20528;-71
2021/11/03 00:26:33;;;;;;;3.42;1.00;;;;;;;5.19;78.77;95087.78;5028775;28;20049;-72
2021/11/03 00:29:01;;;;;;;2.83;1.17;;;;;;;5.15;78.50;95081.41;5030370;28;20080;-72
2021/11/03 00:31:28;;;;;;;1.98;1.17;;;;;;;5.14;78.52;95083.31;5029847;28;20042;-72
2021/11/03 00:33:55;;;;;;;2.10;1.25;;;;;;;5.16;78.45;95083.78;5029940;28;20045;-71
2021/11/03 00:36:21;;;;;;;2.83;1.27;;;;;;;5.13;78.62;95078.25;5029009;28;20060;-71
2021/11/03 00:38:47;;;;;;;1.55;1.02;;;;;;;5.13;78.40;95075.56;5029556;28;20079;-71
2021/11/03 00:41:14;;;;;;;1.52;1.00;;;;;;;5.10;78.51;95065.38;5029740;28;20045;-71
2021/11/03 00:43:40;;;;;;;1.80;1.30;;;;;;;5.09;78.18;95066.50;5029573;28;20044;-71
2021/11/03 00:46:08;;;;;;;1.58;1.10;;;;;;;5.07;78.20;95057.94;5029328;28;20083;-71
2021/11/03 00:48:35;;;;;;;3.95;1.40;;;;;;;5.04;78.43;95047.75;5029039;28;20057;-71
2021/11/03 00:51:01;;;;;;;1.90;1.13;;;;;;;5.00;78.17;95044.88;5029508;28;20520;-71
2021/11/03 00:53:28;;;;;;;4.38;1.40;;;;;;;4.97;78.31;95043.63;5029159;28;20041;-71
2021/11/03 00:55:55;;;;;;;1.77;1.15;;;;;;;4.97;78.53;95042.81;5029695;28;20053;-71
2021/11/03 00:58:21;;;;;;;2.50;1.02;;;;;;;4.96;78.49;95041.25;5032178;28;20044;-71
2021/11/03 01:00:48;;;;;;;1.65;1.20;;;;;;;4.94;78.60;95024.56;5029182;28;20570;-71
2021/11/03 01:03:16;;;;;;;2.92;1.20;;;;;;;4.92;78.66;95011.38;5029268;28;20071;-71
2021/11/03 01:05:44;;;;;;;2.35;1.30;;;;;;;4.91;78.68;95012.50;5028671;28;20133;-71
2021/11/03 01:08:12;;;;;;;2.67;1.25;;;;;;;4.91;78.87;95001.72;5029340;28;20080;-71
2021/11/03 01:10:40;;;;;;;2.13;1.20;;;;;;;4.90;78.80;95000.09;5028768;28;20068;-71
2021/11/03 01:13:07;;;;;;;3.13;1.35;;;;;;;4.87;78.94;95000.75;5029166;28;20555;-71
2021/11/03 01:15:35;;;;;;;2.22;1.40;;;;;;;4.85;78.97;95004.84;5028431;28;20409;-71
2021/11/03 01:18:02;;;;;;;2.72;1.40;;;;;;;4.83;78.97;95002.47;5028480;28;20576;-71
2021/11/03 01:20:29;;;;;;;3.10;1.35;;;;;;;4.79;79.03;95000.72;5029160;28;20401;-72
2021/11/03 01:22:56;;;;;;;2.83;1.40;;;;;;;4.78;79.32;94994.53;5029014;28;20072;-71
2021/11/03 01:25:25;;;;;;;3.70;1.40;;;;;;;4.78;79.24;95002.63;5028389;28;20460;-72
2021/11/03 01:27:52;;;;;;;1.92;1.40;;;;;;;4.79;79.75;94998.81;5031323;28;20045;-72
2021/11/03 01:30:23;;;;;;;2.30;1.58;;;;;;;4.79;79.55;95006.13;5028523;28;20057;-71
2021/11/03 01:32:50;;;;;;;1.73;1.42;;;;;;;4.78;79.60;95008.03;5028621;28;20401;-71
2021/11/03 01:35:17;;;;;;;2.50;1.42;;;;;;;4.76;79.75;95009.44;5028525;28;20053;-72
2021/11/03 01:37:46;;;;;;;3.88;1.67;;;;;;;4.74;79.62;95017.84;5028408;28;20058;-72
2021/11/03 01:40:16;;;;;;;3.22;1.50;;;;;;;4.73;79.52;95010.88;5028525;28;20412;-71
2021/11/03 01:42:42;;;;;;;1.85;1.30;;;;;;;4.72;79.69;95020.06;5028621;28;20048;-72
2021/11/03 01:45:11;;;;;;;3.00;1.70;;;;;;;4.69;79.40;95020.69;5027572;28;20559;-71
2021/11/03 01:47:43;;;;;;;4.15;1.60;;;;;;;4.65;79.47;95020.53;5028780;28;20050;-71
2021/11/03 01:50:16;;;;;;;4.00;1.70;;;;;;;4.61;79.28;95021.47;5027812;28;20395;-71
2021/11/03 01:52:46;;;;;;;2.80;1.48;;;;;;;4.59;79.23;95016.34;5028969;28;20045;-71
2021/11/03 01:55:14;;;;;;;2.80;1.83;;;;;;;4.55;79.24;95014.63;5027205;28;20057;-71
2021/11/03 01:57:44;;;;;;;2.58;1.60;;;;;;;4.52;79.15;95004.47;5031681;28;20507;-71
2021/11/03 02:00:15;;;;;;;2.50;1.50;;;;;;;4.45;78.66;95000.31;5027667;28;20616;-71
2021/11/03 02:02:42;;;;;;;2.88;1.40;;;;;;;4.36;78.55;94996.78;5028395;28;20053;-71
2021/11/03 02:05:10;;;;;;;3.15;1.48;;;;;;;4.32;78.86;94995.03;5027666;28;20045;-70
2021/11/03 02:07:38;;;;;;;2.75;1.42;;;;;;;4.27;78.77;94998.66;5027779;28;20658;-72
2021/11/03 02:10:07;;;;;;;2.25;1.30;;;;;;;4.23;79.08;94995.00;5028090;28;20424;-71
2021/11/03 02:12:33;;;;;;;4.43;1.70;;;;;;;4.20;79.33;94990.22;5027618;28;20056;-71
2021/11/03 02:15:00;;;;;;;2.88;1.60;;;;;;;4.19;79.60;94983.25;5028542;28;20064;-71
2021/11/03 02:17:28;;;;;;;2.08;1.50;;;;;;;4.21;79.19;94985.63;5027046;28;20057;-71
2021/11/03 02:19:58;;;;;;;1.75;1.33;;;;;;;4.22;79.21;94969.13;5028251;28;20056;-71
2021/11/03 02:22:32;;;;;;;1.70;1.13;;;;;;;4.24;78.97;94971.53;5027037;28;20053;-72
2021/11/03 02:25:04;;;;;;;2.40;1.60;;;;;;;4.19;79.27;94969.78;5027805;28;20061;-71
2021/11/03 02:27:33;;;;;;;1.23;1.00;;;;;;;4.18;79.06;94962.81;5008320;28;20053;-71
2021/11/03 02:30:00;;;;;;;1.40;1.08;;;;;;;4.18;78.95;94957.41;5007721;28;20061;-71
2021/11/03 02:32:30;;;;;;;1.67;1.13;;;;;;;4.16;78.89;94946.16;5008091;28;20045;-71
2021/11/03 02:34:57;;;;;;;1.80;1.15;;;;;;;4.15;79.31;94936.47;5007016;28;20046;-71
2021/11/03 02:37:40;;;;;;;2.33;1.17;;;;;;;4.13;79.37;94922.53;5008136;28;20050;-71
2021/11/03 02:40:20;;;;;;;1.63;1.10;;;;;;;4.11;79.85;94925.53;5008888;28;20436;-71
2021/11/03 02:42:51;;;;;;;1.63;1.23;;;;;;;4.08;79.96;94928.06;5007998;28;20057;-71
2021/11/03 02:45:21;;;;;;;2.45;1.50;;;;;;;4.03;79.99;94931.69;5007309;28;20448;-71
2021/11/03 02:47:48;;;;;;;2.10;1.38;;;;;;;4.01;80.22;94927.69;5008072;28;20054;-71
2021/11/03 02:50:15;;;;;;;3.72;1.50;;;;;;;4.01;80.06;94931.19;5008193;28;20045;-71
2021/11/03 02:52:42;;;;;;;6.72;1.42;;;;;;;4.01;79.60;94933.09;5007168;28;20453;-71
2021/11/03 02:55:12;;;;;;;4.47;1.20;;;;;;;4.03;79.03;94928.19;5007538;28;20061;-71
2021/11/03 02:57:39;;;;;;;2.63;1.30;;;;;;;4.03;77.96;94928.19;5018040;28;20052;-71
2021/11/03 03:00:11;;;;;;;2.13;1.48;;;;;;;3.98;77.63;94926.44;5027418;28;20056;-71
2021/11/03 03:02:38;;;;;;;3.58;1.38;;;;;;;3.93;77.77;94930.06;5027233;28;20056;-71
2021/11/03 03:05:05;;;;;;;2.67;1.38;;;;;;;3.89;78.16;94921.00;5026919;28;20445;-71
2021/11/03 03:07:32;;;;;;;2.97;1.52;;;;;;;3.81;78.30;94905.63;5027464;28;20053;-71
2021/11/03 03:09:59;;;;;;;2.55;1.73;;;;;;;3.79;78.54;94910.50;5027013;28;20060;-71
2021/11/03 03:12:30;;;;;;;4.63;1.92;;;;;;;3.75;79.16;94896.06;5027268;28;20084;-71
2021/11/03 03:14:58;;;;;;;3.05;1.88;;;;;;;3.73;79.63;94889.41;5026485;28;20421;-71
2021/11/03 03:17:24;;;;;;;3.42;2.03;;;;;;;3.70;79.79;94888.13;5027560;28;20136;-71
2021/11/03 03:19:51;;;;;;;3.22;2.38;;;;;;;3.68;79.99;94882.25;5027428;28;20049;-71
2021/11/03 03:22:19;;;;;;;3.53;2.33;;;;;;;3.67;80.05;94880.69;5027249;28;20049;-71
2021/11/03 03:24:45;;;;;;;5.80;2.88;;;;;;;3.67;80.45;94878.00;5026729;28;20430;-71
2021/11/03 03:27:12;;;;;;;6.22;3.28;;;;;;;3.67;80.75;94875.31;5026641;28;20049;-71
2021/11/03 03:29:40;;;;;;;5.93;3.72;;;;;;;3.69;81.26;94875.78;5027170;28;20535;-71
2021/11/03 03:32:07;;;;;;;8.52;4.15;;;;;;;3.67;81.50;94878.00;5026363;28;20065;-71
2021/11/03 03:34:34;;;;;;;5.30;3.63;;;;;;;3.68;81.92;94868.81;5027329;28;20068;-71
2021/11/03 03:37:01;;;;;;;6.47;3.97;;;;;;;3.67;82.24;94861.84;5026677;28;20060;-71
2021/11/03 03:39:28;;;;;;;5.85;3.78;;;;;;;3.67;82.08;94867.22;5027046;28;20049;-71
2021/11/03 03:41:58;;;;;;;5.60;3.88;;;;;;;3.68;82.23;94860.72;5027456;28;20049;-71
2021/11/03 03:44:25;;;;;;;5.25;3.97;;;;;;;3.68;82.17;94863.41;5026793;28;20049;-71
2021/11/03 03:46:53;;;;;;;6.07;4.03;;;;;;;3.69;82.42;94853.44;5026473;28;20508;-71
2021/11/03 03:49:19;;;;;;;5.78;4.18;;;;;;;3.68;82.50;94852.66;5026469;28;20045;-71
2021/11/03 03:51:46;;;;;;;6.97;4.15;;;;;;;3.65;82.53;94862.16;5027444;28;20150;-71
2021/11/03 03:54:13;;;;;;;5.97;4.32;;;;;;;3.68;82.82;94863.41;5029790;28;20053;-71
2021/11/03 03:56:40;;;;;;;6.82;4.63;;;;;;;3.69;82.84;94859.63;5030861;28;20147;-71
2021/11/03 03:59:06;;;;;;;6.18;4.57;;;;;;;3.72;82.57;94864.41;5010973;28;20049;-71
2021/11/03 04:01:33;;;;;;;6.07;4.45;;;;;;;3.69;82.64;94854.25;5011473;28;20056;-71
2021/11/03 04:04:01;;;;;;;7.43;5.03;;;;;;;3.68;82.58;94860.72;5009956;28;20057;-71
2021/11/03 04:06:27;;;;;;;7.28;5.05;;;;;;;3.69;83.06;94859.63;5010507;28;20046;-71
2021/11/03 04:08:54;;;;;;;8.30;5.15;;;;;;;3.69;82.90;94865.00;5010076;28;20436;-71
2021/11/03 04:11:21;;;;;;;7.40;4.85;;;;;;;3.69;82.96;94865.00;5010217;28;20050;-71
2021/11/03 04:13:48;;;;;;;7.68;5.30;;;;;;;3.68;82.98;94863.41;5010287;28;20058;-71
2021/11/03 04:16:14;;;;;;;7.20;4.97;;;;;;;3.66;83.03;94854.88;5009675;28;20504;-71
2021/11/03 04:18:41;;;;;;;9.73;5.10;;;;;;;3.65;82.71;94866.72;5010687;28;20075;-71
2021/11/03 04:21:09;;;;;;;7.47;5.10;;;;;;;3.63;82.77;94861.66;5009377;28;20725;-71
2021/11/03 04:23:36;;;;;;;8.43;5.18;;;;;;;3.63;82.80;94860.88;5010754;28;20057;-71
2021/11/03 04:26:03;;;;;;;7.28;4.97;;;;;;;3.62;82.74;94867.34;5008921;28;20053;-71
2021/11/03 04:28:30;;;;;;;9.05;4.57;;;;;;;3.58;82.79;94869.88;5011843;28;20121;-71
2021/11/03 04:30:56;;;;;;;7.00;4.97;;;;;;;3.58;82.85;94869.06;5009607;28;20049;-71
2021/11/03 04:33:23;;;;;;;8.85;4.80;;;;;;;3.57;82.92;94870.19;5009949;28;20054;-71
2021/11/03 04:35:50;;;;;;;6.68;4.15;;;;;;;3.61;83.04;94879.22;5009496;28;20100;-71
2021/11/03 04:38:18;;;;;;;7.25;4.85;;;;;;;3.60;82.76;94870.38;5009658;28;20054;-76
2021/11/03 04:40:45;;;;;;;8.00;4.53;;;;;;;3.59;82.62;94866.06;5010276;28;20054;-71
2021/11/03 04:43:11;;;;;;;7.65;4.82;;;;;;;3.61;82.68;94863.09;5009178;28;20061;-71
2021/11/03 04:45:38;;;;;;;6.78;4.45;;;;;;;3.58;82.01;94859.09;5009852;28;20046;-71
2021/11/03 04:48:05;;;;;;;8.82;4.93;;;;;;;3.55;82.29;94858.91;5008551;28;20054;-71
2021/11/03 04:50:32;;;;;;;7.53;4.63;;;;;;;3.53;82.24;94845.78;5010429;28;20046;-71
2021/11/03 04:52:59;;;;;;;10.55;5.15;;;;;;;3.53;82.07;94839.59;5008921;28;20667;-71
2021/11/03 04:55:27;;;;;;;9.63;5.10;;;;;;;3.51;81.95;94841.81;5009506;28;20046;-71
2021/11/03 04:57:54;;;;;;;9.30;5.00;;;;;;;3.50;82.15;94840.22;5010172;28;20045;-71
2021/11/03 05:00:28;;;;;;;7.25;4.53;;;;;;;3.48;82.68;94842.44;5009608;28;20077;-71
2021/11/03 05:02:56;;;;;;;10.13;4.97;;;;;;;3.47;82.55;94835.47;5009564;28;20050;-71
2021/11/03 05:05:24;;;;;;;10.98;5.47;;;;;;;3.47;82.31;94827.38;5008354;28;20154;-71
2021/11/03 05:07:50;;;;;;;10.27;5.20;;;;;;;3.47;82.13;94825.50;5009976;28;20053;-71
2021/11/03 05:10:18;;;;;;;10.27;4.85;;;;;;;3.47;82.30;94819.31;5008418;28;20533;-72
2021/11/03 05:12:46;;;;;;;8.70;4.65;;;;;;;3.47;82.07;94825.50;5009823;28;20061;-71
2021/11/03 05:15:12;;;;;;;8.77;5.25;;;;;;;3.46;82.44;94821.22;5007902;28;20049;-71
2021/11/03 05:17:39;;;;;;;8.23;5.20;;;;;;;3.46;82.38;94820.44;5009907;28;20053;-71
2021/11/03 05:20:07;;;;;;;11.73;5.10;;;;;;;3.47;82.52;94814.72;5008474;28;20057;-71
2021/11/03 05:22:34;;;;;;;10.07;4.90;;;;;;;3.49;82.16;94817.09;5009569;28;20045;-71
2021/11/03 05:25:00;;;;;;;10.68;5.35;;;;;;;3.49;82.16;94814.41;5009006;28;20053;-72
2021/11/03 05:27:27;;;;;;;11.05;4.78;;;;;;;3.50;82.12;94810.59;5016325;28;20056;-71
2021/11/03 05:29:57;;;;;;;11.98;5.32;;;;;;;3.47;81.68;94808.56;5029034;28;20053;-71
2021/11/03 05:32:24;;;;;;;9.50;5.13;;;;;;;3.46;81.65;94812.34;5027816;28;20050;-71
2021/11/03 05:34:50;;;;;;;10.25;5.25;;;;;;;3.45;81.62;94813.47;5028880;28;20053;-71
2021/11/03 05:37:18;;;;;;;12.45;5.30;;;;;;;3.45;81.73;94805.41;5027671;28;20052;-71
2021/11/03 05:39:45;;;;;;;13.82;5.72;;;;;;;3.43;81.41;94797.59;5029120;28;20049;-71
2021/11/03 05:42:12;;;;;;;13.50;5.85;;;;;;;3.42;81.61;94795.25;5027563;28;20095;-71
2021/11/03 05:44:39;;;;;;;11.52;5.18;;;;;;;3.43;81.58;94803.00;5028163;28;20049;-71
2021/11/03 05:47:07;;;;;;;10.50;5.63;;;;;;;3.42;81.73;94796.03;5027891;28;20060;-71
2021/11/03 05:49:37;;;;;;;10.95;5.75;;;;;;;3.44;81.79;94801.09;5028209;28;20041;-71
2021/11/03 05:52:06;;;;;;;11.50;5.50;;;;;;;3.44;81.70;94803.78;5028365;28;20049;-71
2021/11/03 05:54:33;;;;;;;12.95;5.55;;;;;;;3.46;81.94;94801.59;5027602;28;20048;-71
2021/11/03 05:57:02;;;;;;;12.20;5.93;;;;;;;3.50;81.72;94791.78;5025302;28;20046;-71
2021/11/03 05:59:29;;;;;;;9.90;5.60;;;;;;;3.55;81.32;94802.41;5007837;28;20165;-72
2021/11/03 06:01:56;;;;;;;13.57;6.25;;;;;;;3.60;80.39;94799.56;5009142;28;20073;-72
2021/11/03 06:04:24;;;;;;;18.58;9.40;;;;;;;3.62;79.96;94806.25;5007322;28;20552;-73
2021/11/03 06:06:51;;;;;;;27.75;13.80;;;;;;;3.61;79.66;94803.88;5008368;28;20503;-75
2021/11/03 06:09:17;;;;;;;26.95;13.38;;;;;;;3.58;79.79;94807.97;5021889;28;20049;-73
2021/11/03 06:11:50;;;;;;;34.03;16.23;;;;;;;3.59;79.89;94800.69;5012459;28;20053;-74
2021/11/03 06:14:16;;;;;;;25.03;11.93;;;;;;;3.57;79.70;94792.91;5007606;28;20058;-73
2021/11/03 06:16:43;;;;;;;27.95;13.82;;;;;;;3.56;79.86;94794.03;5007217;28;20053;-74
2021/11/03 06:19:10;;;;;;;36.85;16.83;;;;;;;3.57;79.88;94802.91;5007897;28;20057;-73
2021/11/03 06:21:37;;;;;;;33.15;14.63;;;;;;;3.56;79.90;94801.31;5007709;28;20054;-74
2021/11/03 06:24:05;;;;;;;17.65;8.50;;;;;;;3.56;80.45;94795.94;5022698;28;20057;-74
2021/11/03 06:26:31;;;;;;;17.25;7.65;;;;;;;3.61;80.73;94785.81;5023491;28;20053;-73
2021/11/03 06:28:59;;;;;;;44.80;17.90;;;;;;;3.63;80.73;94785.50;5007193;28;20054;-73
2021/11/03 06:31:25;;;;;;;37.40;17.50;;;;;;;3.69;80.64;94776.16;5006980;28;20057;-73
2021/11/03 06:33:52;;;;;;;33.47;16.13;;;;;;;3.71;80.95;94784.75;5007319;28;20052;-73
2021/11/03 06:36:19;;;;;;;32.28;15.32;;;;;;;3.73;81.26;94766.38;5006800;28;20060;-74
2021/11/03 06:38:47;;;;;;;21.48;9.77;;;;;;;3.74;81.65;94767.94;5007315;28;20498;-73
2021/11/03 06:41:17;;;;;;;12.02;6.88;;;;;;;3.80;82.16;94774.78;5008014;28;20057;-73
2021/11/03 06:43:44;;;;;;;14.23;6.15;;;;;;;3.83;82.26;94774.16;5006936;28;20042;-73
2021/11/03 06:46:12;;;;;;;11.25;6.28;;;;;;;3.86;82.91;94778.94;5007501;28;20054;-73
2021/11/03 06:48:39;;;;;;;14.52;6.10;;;;;;;3.93;82.47;94779.25;5007489;28;20046;-73
2021/11/03 06:51:06;;;;;;;13.77;6.53;;;;;;;4.02;82.88;94781.16;5007691;28;20054;-74
2021/11/03 06:53:33;;;;;;;12.27;6.28;;;;;;;4.11;83.21;94773.88;5007496;28;20046;-74
2021/11/03 06:56:01;;;;;;;12.95;6.50;;;;;;;4.21;82.31;94778.97;5007193;28;20049;-73
2021/11/03 06:58:29;;;;;;;14.68;5.90;;;;;;;4.29;82.10;94775.50;5007964;28;20089;-74
2021/11/03 07:00:56;;;;;;;12.13;6.43;;;;;;;4.34;81.95;94778.03;5007479;28;20567;-73
2021/11/03 07:03:24;;;;;;;14.02;6.45;;;;;;;4.44;81.57;94785.81;5007768;28;20645;-73
2021/11/03 07:05:52;;;;;;;9.85;5.97;;;;;;;4.47;81.02;94776.28;5006592;28;20057;-73
2021/11/03 07:08:20;;;;;;;13.65;5.47;;;;;;;4.53;81.03;94776.91;5008042;28;20057;-73
2021/11/03 07:10:49;;;;;;;9.77;5.00;;;;;;;4.53;80.63;94782.31;5007035;28;20057;-73
2021/11/03 07:13:19;;;;;;;10.73;5.70;;;;;;;4.59;81.24;94786.41;5007507;28;20050;-73
2021/11/03 07:15:46;;;;;;;11.45;4.32;;;;;;;4.63;81.33;94790.84;5007254;28;20073;-73
2021/11/03 07:18:14;;;;;;;7.45;4.65;;;;;;;4.66;81.29;94790.22;5007096;28;20418;-76
2021/11/03 07:20:42;;;;;;;11.57;5.60;;;;;;;4.71;81.87;94789.28;5007688;28;20045;-73
2021/11/03 07:23:09;;;;;;;7.63;4.40;;;;;;;4.79;82.28;94776.88;5006652;28;20057;-73
2021/11/03 07:25:36;;;;;;;11.23;4.70;;;;;;;4.88;82.47;94781.16;5007685;28;20057;-73
2021/11/03 07:28:02;;;;;;;8.65;4.20;;;;;;;4.96;82.28;94769.56;5009930;28;20053;-73
2021/11/03 07:30:33;;;;;;;7.03;3.90;;;;;;;5.05;82.01;94768.75;5011609;28;20045;-73
2021/11/03 07:33:00;;;;;;;6.30;3.50;;;;;;;5.09;81.67;94758.91;5010872;28;20053;-74
2021/11/03 07:35:27;;;;;;;7.53;3.70;;;;;;;5.19;80.95;94751.25;5030792;28;20038;-74
2021/11/03 07:37:54;;;;;;;6.63;3.95;;;;;;;5.25;81.00;94768.06;5030598;28;20463;-74
2021/11/03 07:40:24;;;;;;;7.05;3.60;;;;;;;5.25;80.15;94751.88;5030271;28;20135;-73
2021/11/03 07:42:53;;;;;;;6.70;3.58;;;;;;;5.28;80.18;94751.22;5030979;28;20064;-73
2021/11/03 07:45:20;;;;;;;4.72;3.00;;;;;;;5.33;79.99;94737.56;5029277;28;20056;-74
2021/11/03 07:47:48;;;;;;;8.38;3.83;;;;;;;5.38;79.62;94737.38;5031341;28;20133;-74
2021/11/03 07:50:20;;;;;;;6.30;3.17;;;;;;;5.45;78.91;94739.56;5029607;28;20049;-74
2021/11/03 07:52:46;;;;;;;5.10;2.60;;;;;;;5.47;78.75;94721.91;5031204;28;20049;-74
2021/11/03 07:55:13;;;;;;;5.38;3.10;;;;;;;5.46;78.50;94723.03;5029372;28;20053;-73
2021/11/03 07:57:39;;;;;;;9.43;3.00;;;;;;;5.52;78.92;94725.56;5031212;28;20861;-73
2021/11/03 08:00:09;;;;;;;7.30;3.13;;;;;;;5.51;78.21;94727.47;5030116;28;20056;-74
2021/11/03 08:02:36;;;;;;;7.95;3.17;;;;;;;5.52;78.90;94723.66;5030693;28;20052;-75
2021/11/03 08:05:04;;;;;;;8.82;3.55;;;;;;;5.61;78.96;94721.69;5029795;28;20050;-73
2021/11/03 08:07:31;;;;;;;7.10;3.33;;;;;;;5.67;78.77;94720.38;5029754;28;20049;-74
2021/11/03 08:09:57;;;;;;;7.78;3.65;;;;;;;5.76;78.14;94717.66;5030873;28;20050;-73
2021/11/03 08:12:24;;;;;;;8.60;3.58;;;;;;;5.79;77.84;94706.16;5029146;28;20103;-74
2021/11/03 08:14:50;;;;;;;9.38;3.78;;;;;;;5.80;77.74;94699.69;5030576;28;20057;-74
2021/11/03 08:17:21;;;;;;;8.40;3.35;;;;;;;5.82;77.96;94704.75;5029142;28;20061;-73
2021/11/03 08:19:54;;;;;;;10.60;3.60;;;;;;;5.86;78.11;94703.75;5030362;28;20060;-74
2021/11/03 08:22:24;;;;;;;9.95;4.03;;;;;;;5.91;78.06;94703.59;5029507;28;20497;-73
2021/11/03 08:24:51;;;;;;;13.90;4.53;;;;;;;5.98;77.53;94705.78;5029519;28;20053;-74
2021/11/03 08:27:21;;;;;;;9.85;3.95;;;;;;;6.05;77.56;94702.53;5030220;28;20052;-73
2021/11/03 08:29:48;;;;;;;8.02;3.45;;;;;;;6.06;76.80;94714.94;5029429;28;20136;-74
2021/11/03 08:32:17;;;;;;;9.80;3.90;;;;;;;6.01;76.34;94718.63;5029867;28;20104;-73
2021/11/03 08:34:44;;;;;;;8.00;4.10;;;;;;;6.07;77.00;94716.53;5029105;28;20129;-73
2021/11/03 08:37:14;;;;;;;8.77;3.22;;;;;;;6.14;76.98;94711.38;5029059;28;20523;-74
2021/11/03 08:39:46;;;;;;;7.78;3.65;;;;;;;6.22;76.82;94705.91;5028836;28;20056;-73
2021/11/03 08:42:12;;;;;;;7.10;3.33;;;;;;;6.29;76.69;94702.69;5029399;28;20071;-74
2021/11/03 08:44:40;;;;;;;9.05;3.47;;;;;;;6.34;76.08;94707.88;5028946;28;20041;-74
2021/11/03 08:47:07;;;;;;;10.10;3.38;;;;;;;6.34;75.95;94699.78;5028717;28;20058;-72
2021/11/03 08:49:34;;;;;;;8.93;3.22;;;;;;;6.39;76.44;94702.28;5029702;28;20132;-74
2021/11/03 08:52:02;;;;;;;7.05;3.22;;;;;;;6.41;75.94;94699.22;5029353;28;20077;-73
2021/11/03 08:54:28;;;;;;;6.30;3.17;;;;;;;6.41;75.88;94693.81;5021277;28;20413;-74
2021/11/03 08:56:56;;;;;;;7.00;3.38;;;;;;;6.46;76.04;94691.72;5029209;28;20045;-73
2021/11/03 08:59:23;;;;;;;5.35;3.05;;;;;;;6.48;75.61;94694.09;5029567;28;20687;-73
2021/11/03 09:01:49;;;;;;;5.82;3.10;;;;;;;6.54;75.56;94688.16;5028753;28;20500;-74
2021/11/03 09:04:16;;;;;;;7.80;3.47;;;;;;;6.63;76.04;94690.78;5028905;28;20053;-74
2021/11/03 09:06:42;;;;;;;6.40;3.17;;;;;;;6.74;76.12;94694.63;5028620;28;20053;-75
2021/11/03 09:09:09;;;;;;;5.97;2.95;;;;;;;6.85;74.76;94697.72;5028966;28;20692;-73
2021/11/03 09:11:35;;;;;;;6.65;3.25;;;;;;;6.94;75.15;94700.31;5029414;28;20041;-76
2021/11/03 09:14:04;;;;;;;6.90;3.35;;;;;;;7.03;74.34;94698.31;5028618;28;20424;-73
2021/11/03 09:16:31;;;;;;;6.28;3.33;;;;;;;7.13;74.61;94702.50;5028985;28;20064;-74
2021/11/03 09:18:57;;;;;;;8.13;2.80;;;;;;;7.18;73.96;94696.88;5028560;28;20057;-74
2021/11/03 09:21:24;;;;;;;5.32;2.92;;;;;;;7.20;73.20;94692.69;5029095;28;20057;-74
2021/11/03 09:23:52;;;;;;;7.30;3.15;;;;;;;7.26;74.35;94696.00;5029487;28;20544;-72
2021/11/03 09:26:21;;;;;;;4.53;3.00;;;;;;;7.34;74.43;94692.38;5029061;28;20057;-74
2021/11/03 09:28:48;;;;;;;5.38;2.67;;;;;;;7.35;74.13;94676.91;5029202;28;20061;-74
2021/11/03 09:31:16;;;;;;;5.75;2.70;;;;;;;7.39;73.99;94667.00;5028676;28;20046;-74
2021/11/03 09:33:43;;;;;;;5.13;2.90;;;;;;;7.38;74.02;94665.41;5028681;28;20676;-75
2021/11/03 09:36:14;;;;;;;9.27;3.08;;;;;;;7.47;74.13;94664.19;5028345;28;20053;-72
2021/11/03 09:38:40;;;;;;;6.55;2.88;;;;;;;7.51;74.03;94664.25;5029387;28;20045;-72
2021/11/03 09:41:13;;;;;;;5.70;2.88;;;;;;;7.56;74.10;94666.75;5028074;28;20060;-71
2021/11/03 09:43:47;;;;;;;7.45;3.00;;;;;;;7.62;73.13;94661.88;5029350;28;20397;-71
2021/11/03 09:46:20;;;;;;;6.47;3.25;;;;;;;7.73;73.53;94654.91;5027416;28;20056;-72
2021/11/03 09:48:52;;;;;;;5.93;3.00;;;;;;;7.78;73.14;94649.25;5029098;28;20135;-73
2021/11/03 09:51:22;;;;;;;8.07;3.35;;;;;;;7.80;73.22;94646.97;5027607;28;20061;-72
2021/11/03 09:53:51;;;;;;;6.10;3.00;;;;;;;7.82;72.96;94647.41;5028680;28;20056;-72
2021/11/03 09:56:22;;;;;;;6.57;2.97;;;;;;;7.81;71.96;94653.97;5027618;28;20061;-72
2021/11/03 09:58:57;;;;;;;6.22;2.58;;;;;;;7.80;72.14;94638.84;5028851;28;20054;-72
2021/11/03 10:01:33;;;;;;;5.40;2.92;;;;;;;7.81;72.26;94640.41;5028637;28;20456;-72
2021/11/03 10:04:18;;;;;;;7.45;3.13;;;;;;;7.84;72.05;94631.63;5027811;28;20057;-72
2021/11/03 10:06:54;;;;;;;6.25;2.88;;;;;;;7.90;72.10;94626.75;5028494;28;20041;-74
2021/11/03 10:09:21;;;;;;;9.63;3.13;;;;;;;7.92;72.25;94617.13;5027978;28;20056;-71
2021/11/03 10:11:49;;;;;;;8.25;3.95;;;;;;;7.96;72.67;94615.31;5028116;28;20058;-74
2021/11/03 10:14:16;;;;;;;8.77;3.83;;;;;;;7.99;72.07;94628.19;5027818;28;20042;-74
2021/11/03 10:16:47;;;;;;;8.57;3.63;;;;;;;7.97;72.19;94630.44;5027211;28;20053;-74
2021/11/03 10:19:31;;;;;;;8.48;4.03;;;;;;;8.01;71.91;94623.22;5028351;28;20584;-74
2021/11/03 10:22:00;;;;;;;8.80;4.43;;;;;;;8.10;72.23;94631.22;5027464;28;20115;-72
2021/11/03 10:24:37;;;;;;;8.35;4.20;;;;;;;8.16;72.34;94620.91;5007914;28;20052;-74
2021/11/03 10:27:16;;;;;;;8.68;4.22;;;;;;;8.20;72.21;94622.59;5007911;28;20054;-71
2021/11/03 10:29:48;;;;;;;8.30;4.18;;;;;;;8.18;71.04;94621.34;5007976;28;20050;-73
2021/11/03 10:32:25;;;;;;;10.38;4.65;;;;;;;8.16;71.58;94620.91;5008255;28;20041;-73
2021/11/03 10:35:12;;;;;;;14.23;4.78;;;;;;;8.20;71.61;94619.09;5006850;28;20595;-72
2021/11/03 10:37:42;;;;;;;10.35;4.00;;;;;;;8.20;71.61;94611.75;5008122;28;20070;-73
2021/11/03 10:40:32;;;;;;;12.52;4.32;;;;;;;8.20;71.93;94608.25;5007247;28;20046;-72
2021/11/03 10:43:01;;;;;;;9.30;4.60;;;;;;;8.20;72.48;94608.25;5005495;28;20624;-73
2021/11/03 10:45:33;;;;;;;10.20;4.50;;;;;;;8.20;72.05;94592.00;5007456;28;20481;-72
2021/11/03 10:48:20;;;;;;;7.38;3.70;;;;;;;8.24;71.71;94590.13;5007690;28;20425;-72
2021/11/03 10:51:01;;;;;;;9.15;3.90;;;;;;;8.25;72.15;94583.59;5008405;28;20038;-72
2021/11/03 10:53:30;;;;;;;8.30;3.80;;;;;;;8.28;71.90;94572.84;5007557;28;20042;-73
2021/11/03 10:56:01;;;;;;;6.68;3.58;;;;;;;8.29;71.71;94574.41;5007652;28;20086;-72
2021/11/03 10:58:31;;;;;;;6.55;3.50;;;;;;;8.33;72.05;94577.22;5008725;28;20513;-72
2021/11/03 11:01:03;;;;;;;7.30;4.03;;;;;;;8.40;72.47;94573.94;5009767;28;20133;-72
2021/11/03 11:03:34;;;;;;;6.35;3.58;;;;;;;8.40;72.41;94574.72;5012161;28;20053;-73
2021/11/03 11:06:09;;;;;;;5.22;3.10;;;;;;;8.39;72.08;94567.72;5010851;28;20413;-72
2021/11/03 11:08:46;;;;;;;6.13;3.97;;;;;;;8.39;72.39;94562.28;5011928;28;20046;-72
2021/11/03 11:11:16;;;;;;;5.28;3.42;;;;;;;8.38;72.15;94563.44;5011147;28;20073;-72
2021/11/03 11:13:50;;;;;;;7.82;3.53;;;;;;;8.41;72.38;94568.19;5011793;28;20050;-72
2021/11/03 11:16:23;;;;;;;;;;;;;;;8.41;72.45;94573.59;5011512;28;20057;-72
2021/11/03 11:19:04;;;;;;;5.38;3.13;;;;;;;8.38;72.33;94577.00;5011648;28;19925;-72
2021/11/03 11:21:43;;;;;;;6.15;3.10;;;;;;;8.38;71.78;94571.56;5011867;28;20042;-72
2021/11/03 11:24:14;;;;;;;8.60;3.72;;;;;;;8.38;72.22;94577.00;5010524;28;20050;-72
2021/11/03 11:26:47;;;;;;;9.95;3.38;;;;;;;8.39;72.19;94577.78;5013021;28;20052;-72
2021/11/03 11:29:22;;;;;;;8.77;3.75;;;;;;;8.38;71.81;94578.94;5030544;28;20413;-72
2021/11/03 11:31:57;;;;;;;7.28;3.35;;;;;;;8.39;72.39;94575.84;5031110;28;20521;-74
2021/11/03 11:34:48;;;;;;;6.32;3.05;;;;;;;8.45;72.21;94555.47;5029342;28;20544;-72
2021/11/03 11:37:24;;;;;;;6.82;3.15;;;;;;;8.46;72.64;94561.72;5029966;28;20068;-72
2021/11/03 11:39:58;;;;;;;8.43;3.92;;;;;;;8.45;72.47;94554.69;5031656;28;20422;-72
2021/11/03 11:42:37;;;;;;;7.18;3.25;;;;;;;8.47;72.63;94552.44;5030654;28;20046;-72
2021/11/03 11:45:12;;;;;;;6.82;3.50;;;;;;;8.51;72.64;94553.28;5030184;28;20046;-72
2021/11/03 11:47:42;;;;;;;6.35;3.42;;;;;;;8.53;73.17;94540.97;5030710;28;20563;-72